sensor_id;sensor_type;location;lat;lon;timestamp;temperature;humidity
73137;DHT22;61329;45.638;11.714;2022-08-11T00:01:20;29.60;33.80
73137;DHT22;61329;45.638;11.714;2022-08-11T00:03:51;29.60;34.40
73137;DHT22;61329;45.638;11.714;2022-08-11T00:06:30;29.50;34.50
73137;DHT22;61329;45.638;11.714;2022-08-11T00:08:57;29.60;34.70
73137;DHT22;61329;45.638;11.714;2022-08-11T00:11:35;29.60;34.40
73137;DHT22;61329;45.638;11.714;2022-08-11T00:14:03;29.60;34.20
73137;DHT22;61329;45.638;11.714;2022-08-11T00:16:30;29.60;34.50
73137;DHT22;61329;45.638;11.714;2022-08-11T00:18:58;29.50;34.20
73137;DHT22;61329;45.638;11.714;2022-08-11T00:21:26;29.50;34.50
73137;DHT22;61329;45.638;11.714;2022-08-11T00:24:00;29.60;34.30
73137;DHT22;61329;45.638;11.714;2022-08-11T00:26:27;29.60;34.50
73137;DHT22;61329;45.638;11.714;2022-08-11T00:28:54;29.60;35.10
73137;DHT22;61329;45.638;11.714;2022-08-11T00:31:28;29.50;34.50
73137;DHT22;61329;45.638;11.714;2022-08-11T00:33:56;29.50;34.60
73137;DHT22;61329;45.638;11.714;2022-08-11T00:36:37;29.50;34.70
73137;DHT22;61329;45.638;11.714;2022-08-11T00:39:05;29.60;34.60
73137;DHT22;61329;45.638;11.714;2022-08-11T00:41:44;29.60;34.90
73137;DHT22;61329;45.638;11.714;2022-08-11T01:20:39;29.40;33.40
73137;DHT22;61329;45.638;11.714;2022-08-11T01:32:22;29.40;33.70
73137;DHT22;61329;45.638;11.714;2022-08-11T01:35:19;29.40;33.80
73137;DHT22;61329;45.638;11.714;2022-08-11T01:38:26;29.30;34.40
73137;DHT22;61329;45.638;11.714;2022-08-11T01:44:11;29.30;34.20
73137;DHT22;61329;45.638;11.714;2022-08-11T01:53:02;29.30;34.00
73137;DHT22;61329;45.638;11.714;2022-08-11T01:55:46;29.30;34.30
73137;DHT22;61329;45.638;11.714;2022-08-11T02:04:42;29.40;33.70
73137;DHT22;61329;45.638;11.714;2022-08-11T02:11:08;29.30;33.10
73137;DHT22;61329;45.638;11.714;2022-08-11T02:17:12;29.30;33.40
73137;DHT22;61329;45.638;11.714;2022-08-11T02:19:53;29.30;33.10
73137;DHT22;61329;45.638;11.714;2022-08-11T02:23:01;29.20;33.10
73137;DHT22;61329;45.638;11.714;2022-08-11T02:26:09;29.20;32.80
73137;DHT22;61329;45.638;11.714;2022-08-11T02:31:32;29.30;33.40
73137;DHT22;61329;45.638;11.714;2022-08-11T02:45:34;29.20;33.10
73137;DHT22;61329;45.638;11.714;2022-08-11T03:00:07;29.30;33.90
73137;DHT22;61329;45.638;11.714;2022-08-11T03:05:57;29.20;34.00
73137;DHT22;61329;45.638;11.714;2022-08-11T03:18:09;29.20;33.90
73137;DHT22;61329;45.638;11.714;2022-08-11T03:23:36;29.20;34.50
73137;DHT22;61329;45.638;11.714;2022-08-11T03:26:27;29.20;33.90
73137;DHT22;61329;45.638;11.714;2022-08-11T03:29:21;29.20;34.10
73137;DHT22;61329;45.638;11.714;2022-08-11T03:32:01;29.20;34.10
73137;DHT22;61329;45.638;11.714;2022-08-11T03:34:38;29.20;33.70
73137;DHT22;61329;45.638;11.714;2022-08-11T03:37:23;29.10;33.70
73137;DHT22;61329;45.638;11.714;2022-08-11T03:43:33;29.20;33.30
73137;DHT22;61329;45.638;11.714;2022-08-11T03:46:13;29.10;33.50
73137;DHT22;61329;45.638;11.714;2022-08-11T03:49:07;29.10;33.60
73137;DHT22;61329;45.638;11.714;2022-08-11T03:52:02;29.20;33.80
73137;DHT22;61329;45.638;11.714;2022-08-11T04:00:22;29.10;34.90
73137;DHT22;61329;45.638;11.714;2022-08-11T04:03:14;29.20;35.20
73137;DHT22;61329;45.638;11.714;2022-08-11T04:20:08;29.10;36.20
73137;DHT22;61329;45.638;11.714;2022-08-11T04:22:53;29.10;36.20
73137;DHT22;61329;45.638;11.714;2022-08-11T04:36:52;29.20;36.50
73137;DHT22;61329;45.638;11.714;2022-08-11T04:52:43;29.20;36.10
73137;DHT22;61329;45.638;11.714;2022-08-11T04:55:58;29.20;36.40
73137;DHT22;61329;45.638;11.714;2022-08-11T05:05:20;29.40;35.90
73137;DHT22;61329;45.638;11.714;2022-08-11T05:08:25;29.30;36.20
73137;DHT22;61329;45.638;11.714;2022-08-11T05:17:03;29.40;36.10
73137;DHT22;61329;45.638;11.714;2022-08-11T05:19:49;29.40;36.00
73137;DHT22;61329;45.638;11.714;2022-08-11T05:22:34;29.50;35.70
73137;DHT22;61329;45.638;11.714;2022-08-11T05:25:31;29.50;36.10
73137;DHT22;61329;45.638;11.714;2022-08-11T05:31:14;29.50;36.50
73137;DHT22;61329;45.638;11.714;2022-08-11T05:34:09;29.50;35.60
73137;DHT22;61329;45.638;11.714;2022-08-11T05:40:20;29.70;35.30
73137;DHT22;61329;45.638;11.714;2022-08-11T05:43:43;29.70;35.50
73137;DHT22;61329;45.638;11.714;2022-08-11T05:46:43;29.70;35.00
73137;DHT22;61329;45.638;11.714;2022-08-11T05:49:48;29.70;34.80
73137;DHT22;61329;45.638;11.714;2022-08-11T05:52:44;29.60;34.50
73137;DHT22;61329;45.638;11.714;2022-08-11T05:55:29;29.70;34.60
73137;DHT22;61329;45.638;11.714;2022-08-11T05:58:15;29.60;34.70
73137;DHT22;61329;45.638;11.714;2022-08-11T06:00:45;29.60;35.40
73137;DHT22;61329;45.638;11.714;2022-08-11T06:03:27;29.50;35.30
73137;DHT22;61329;45.638;11.714;2022-08-11T06:05:56;29.50;35.80
73137;DHT22;61329;45.638;11.714;2022-08-11T06:08:32;29.50;35.80
73137;DHT22;61329;45.638;11.714;2022-08-11T06:11:05;29.50;36.10
73137;DHT22;61329;45.638;11.714;2022-08-11T06:13:42;29.50;36.00
73137;DHT22;61329;45.638;11.714;2022-08-11T06:16:12;29.50;35.80
73137;DHT22;61329;45.638;11.714;2022-08-11T06:18:45;29.60;35.90
73137;DHT22;61329;45.638;11.714;2022-08-11T06:21:12;29.60;34.90
73137;DHT22;61329;45.638;11.714;2022-08-11T06:23:39;29.60;33.90
73137;DHT22;61329;45.638;11.714;2022-08-11T06:26:11;29.70;33.80
73137;DHT22;61329;45.638;11.714;2022-08-11T06:28:41;29.70;33.70
73137;DHT22;61329;45.638;11.714;2022-08-11T06:31:20;29.60;33.80
73137;DHT22;61329;45.638;11.714;2022-08-11T06:39:09;29.70;33.00
73137;DHT22;61329;45.638;11.714;2022-08-11T06:41:48;29.80;33.10
73137;DHT22;61329;45.638;11.714;2022-08-11T06:44:23;29.80;33.20
73137;DHT22;61329;45.638;11.714;2022-08-11T06:46:52;29.80;33.20
73137;DHT22;61329;45.638;11.714;2022-08-11T06:49:23;29.80;32.60
73137;DHT22;61329;45.638;11.714;2022-08-11T06:52:15;29.90;33.00
73137;DHT22;61329;45.638;11.714;2022-08-11T06:54:51;29.90;33.10
73137;DHT22;61329;45.638;11.714;2022-08-11T06:57:34;29.90;33.20
73137;DHT22;61329;45.638;11.714;2022-08-11T07:00:19;29.80;32.90
73137;DHT22;61329;45.638;11.714;2022-08-11T07:03:11;29.80;33.00
73137;DHT22;61329;45.638;11.714;2022-08-11T07:05:54;29.70;33.10
73137;DHT22;61329;45.638;11.714;2022-08-11T07:12:16;29.80;33.20
73137;DHT22;61329;45.638;11.714;2022-08-11T07:14:53;29.80;33.00
73137;DHT22;61329;45.638;11.714;2022-08-11T07:17:44;30.00;32.80
73137;DHT22;61329;45.638;11.714;2022-08-11T07:20:14;29.90;33.00
73137;DHT22;61329;45.638;11.714;2022-08-11T07:23:02;29.90;32.90
73137;DHT22;61329;45.638;11.714;2022-08-11T07:25:51;29.90;33.10
73137;DHT22;61329;45.638;11.714;2022-08-11T07:28:41;29.90;33.00
73137;DHT22;61329;45.638;11.714;2022-08-11T07:31:52;29.90;32.60
73137;DHT22;61329;45.638;11.714;2022-08-11T07:34:31;30.00;32.70
73137;DHT22;61329;45.638;11.714;2022-08-11T07:36:59;30.00;32.40
73137;DHT22;61329;45.638;11.714;2022-08-11T07:39:31;30.00;32.60
73137;DHT22;61329;45.638;11.714;2022-08-11T07:41:58;30.10;32.70
73137;DHT22;61329;45.638;11.714;2022-08-11T07:44:26;30.10;31.90
73137;DHT22;61329;45.638;11.714;2022-08-11T07:46:54;30.10;32.00
73137;DHT22;61329;45.638;11.714;2022-08-11T07:49:39;30.10;31.70
73137;DHT22;61329;45.638;11.714;2022-08-11T07:52:29;30.10;31.40
73137;DHT22;61329;45.638;11.714;2022-08-11T07:55:10;30.00;31.70
73137;DHT22;61329;45.638;11.714;2022-08-11T07:57:38;30.10;31.50
73137;DHT22;61329;45.638;11.714;2022-08-11T08:00:23;30.10;31.30
73137;DHT22;61329;45.638;11.714;2022-08-11T08:03:10;30.10;31.40
73137;DHT22;61329;45.638;11.714;2022-08-11T08:05:56;30.10;31.10
73137;DHT22;61329;45.638;11.714;2022-08-11T08:08:41;30.10;31.40
73137;DHT22;61329;45.638;11.714;2022-08-11T08:11:26;30.10;30.70
73137;DHT22;61329;45.638;11.714;2022-08-11T08:14:11;30.20;31.10
73137;DHT22;61329;45.638;11.714;2022-08-11T08:16:56;30.20;31.30
73137;DHT22;61329;45.638;11.714;2022-08-11T08:19:46;30.20;31.50
73137;DHT22;61329;45.638;11.714;2022-08-11T08:22:17;30.20;31.40
73137;DHT22;61329;45.638;11.714;2022-08-11T08:24:44;30.20;31.10
73137;DHT22;61329;45.638;11.714;2022-08-11T08:27:12;30.20;30.80
73137;DHT22;61329;45.638;11.714;2022-08-11T08:29:39;30.20;31.00
73137;DHT22;61329;45.638;11.714;2022-08-11T08:32:25;30.20;30.80
73137;DHT22;61329;45.638;11.714;2022-08-11T08:34:53;30.20;30.50
73137;DHT22;61329;45.638;11.714;2022-08-11T08:37:21;30.20;30.10
73137;DHT22;61329;45.638;11.714;2022-08-11T08:39:55;30.20;30.40
73137;DHT22;61329;45.638;11.714;2022-08-11T08:42:32;30.20;30.30
73137;DHT22;61329;45.638;11.714;2022-08-11T08:45:09;30.20;30.90
73137;DHT22;61329;45.638;11.714;2022-08-11T08:47:40;30.20;30.30
73137;DHT22;61329;45.638;11.714;2022-08-11T08:50:13;30.10;30.70
73137;DHT22;61329;45.638;11.714;2022-08-11T08:52:57;30.10;30.60
73137;DHT22;61329;45.638;11.714;2022-08-11T08:55:32;30.20;30.50
73137;DHT22;61329;45.638;11.714;2022-08-11T08:58:04;30.10;30.00
73137;DHT22;61329;45.638;11.714;2022-08-11T09:00:41;30.30;30.10
73137;DHT22;61329;45.638;11.714;2022-08-11T09:03:12;30.20;30.50
73137;DHT22;61329;45.638;11.714;2022-08-11T09:05:39;30.30;30.50
73137;DHT22;61329;45.638;11.714;2022-08-11T09:08:08;30.30;30.00
73137;DHT22;61329;45.638;11.714;2022-08-11T09:10:35;30.30;30.40
73137;DHT22;61329;45.638;11.714;2022-08-11T09:13:03;30.30;30.40
73137;DHT22;61329;45.638;11.714;2022-08-11T09:15:31;30.30;30.50
73137;DHT22;61329;45.638;11.714;2022-08-11T09:18:00;30.30;30.50
73137;DHT22;61329;45.638;11.714;2022-08-11T09:20:35;30.30;29.90
73137;DHT22;61329;45.638;11.714;2022-08-11T09:23:08;30.30;30.40
73137;DHT22;61329;45.638;11.714;2022-08-11T09:25:58;30.20;30.60
73137;DHT22;61329;45.638;11.714;2022-08-11T09:28:45;30.30;30.10
73137;DHT22;61329;45.638;11.714;2022-08-11T09:31:13;30.30;30.60
73137;DHT22;61329;45.638;11.714;2022-08-11T09:33:41;30.40;30.20
73137;DHT22;61329;45.638;11.714;2022-08-11T09:36:08;30.30;30.00
73137;DHT22;61329;45.638;11.714;2022-08-11T09:38:53;30.30;29.80
73137;DHT22;61329;45.638;11.714;2022-08-11T09:41:54;30.30;30.30
73137;DHT22;61329;45.638;11.714;2022-08-11T09:44:28;30.30;30.10
73137;DHT22;61329;45.638;11.714;2022-08-11T09:47:27;30.40;29.90
73137;DHT22;61329;45.638;11.714;2022-08-11T09:50:01;30.30;29.80
73137;DHT22;61329;45.638;11.714;2022-08-11T09:52:37;30.30;29.50
73137;DHT22;61329;45.638;11.714;2022-08-11T09:55:04;30.30;30.00
73137;DHT22;61329;45.638;11.714;2022-08-11T09:57:40;30.30;30.20
73137;DHT22;61329;45.638;11.714;2022-08-11T10:00:37;30.40;30.60
73137;DHT22;61329;45.638;11.714;2022-08-11T10:03:14;30.40;30.30
73137;DHT22;61329;45.638;11.714;2022-08-11T10:05:48;30.40;30.40
73137;DHT22;61329;45.638;11.714;2022-08-11T10:08:39;30.30;30.20
73137;DHT22;61329;45.638;11.714;2022-08-11T10:11:10;30.40;30.70
73137;DHT22;61329;45.638;11.714;2022-08-11T10:13:41;30.40;30.70
73137;DHT22;61329;45.638;11.714;2022-08-11T10:16:28;30.40;30.60
73137;DHT22;61329;45.638;11.714;2022-08-11T10:18:55;30.40;30.50
73137;DHT22;61329;45.638;11.714;2022-08-11T10:23:57;30.40;30.90
73137;DHT22;61329;45.638;11.714;2022-08-11T10:26:43;30.40;30.60
73137;DHT22;61329;45.638;11.714;2022-08-11T10:29:35;30.30;30.60
73137;DHT22;61329;45.638;11.714;2022-08-11T10:32:25;30.30;30.40
73137;DHT22;61329;45.638;11.714;2022-08-11T10:35:11;30.30;30.70
73137;DHT22;61329;45.638;11.714;2022-08-11T10:37:41;30.30;30.60
73137;DHT22;61329;45.638;11.714;2022-08-11T10:40:13;30.20;30.60
73137;DHT22;61329;45.638;11.714;2022-08-11T10:42:40;30.20;30.90
73137;DHT22;61329;45.638;11.714;2022-08-11T10:45:25;30.30;30.90
73137;DHT22;61329;45.638;11.714;2022-08-11T10:48:10;30.30;31.10
73137;DHT22;61329;45.638;11.714;2022-08-11T10:50:37;30.30;30.80
73137;DHT22;61329;45.638;11.714;2022-08-11T10:53:22;30.20;31.20
73137;DHT22;61329;45.638;11.714;2022-08-11T10:56:07;30.20;31.00
73137;DHT22;61329;45.638;11.714;2022-08-11T10:58:52;30.20;31.30
73137;DHT22;61329;45.638;11.714;2022-08-11T11:01:36;30.10;31.70
73137;DHT22;61329;45.638;11.714;2022-08-11T11:04:11;30.20;31.50
73137;DHT22;61329;45.638;11.714;2022-08-11T11:06:39;30.10;31.30
73137;DHT22;61329;45.638;11.714;2022-08-11T11:09:16;30.20;32.10
73137;DHT22;61329;45.638;11.714;2022-08-11T11:11:55;30.10;32.00
73137;DHT22;61329;45.638;11.714;2022-08-11T11:14:41;30.10;32.10
73137;DHT22;61329;45.638;11.714;2022-08-11T11:17:37;30.20;32.40
73137;DHT22;61329;45.638;11.714;2022-08-11T11:20:32;30.20;31.90
73137;DHT22;61329;45.638;11.714;2022-08-11T11:23:09;30.10;31.90
73137;DHT22;61329;45.638;11.714;2022-08-11T11:26:00;30.10;32.30
73137;DHT22;61329;45.638;11.714;2022-08-11T11:31:36;30.10;32.90
73137;DHT22;61329;45.638;11.714;2022-08-11T11:36:57;30.10;33.50
73137;DHT22;61329;45.638;11.714;2022-08-11T11:39:29;30.00;33.20
73137;DHT22;61329;45.638;11.714;2022-08-11T11:41:58;30.20;33.30
73137;DHT22;61329;45.638;11.714;2022-08-11T11:44:26;30.10;32.80
73137;DHT22;61329;45.638;11.714;2022-08-11T11:46:53;30.10;32.60
73137;DHT22;61329;45.638;11.714;2022-08-11T11:49:26;30.10;32.30
73137;DHT22;61329;45.638;11.714;2022-08-11T11:51:52;30.10;32.50
73137;DHT22;61329;45.638;11.714;2022-08-11T11:54:25;30.00;32.20
73137;DHT22;61329;45.638;11.714;2022-08-11T11:56:54;30.10;31.50
73137;DHT22;61329;45.638;11.714;2022-08-11T11:59:22;30.00;31.70
73137;DHT22;61329;45.638;11.714;2022-08-11T12:02:10;30.00;31.50
73137;DHT22;61329;45.638;11.714;2022-08-11T12:04:41;30.00;31.60
73137;DHT22;61329;45.638;11.714;2022-08-11T12:07:10;29.90;31.30
73137;DHT22;61329;45.638;11.714;2022-08-11T12:09:56;30.10;31.40
73137;DHT22;61329;45.638;11.714;2022-08-11T12:12:22;29.90;31.00
73137;DHT22;61329;45.638;11.714;2022-08-11T12:15:08;30.00;30.70
73137;DHT22;61329;45.638;11.714;2022-08-11T12:17:36;29.90;30.70
73137;DHT22;61329;45.638;11.714;2022-08-11T12:20:04;30.00;31.10
73137;DHT22;61329;45.638;11.714;2022-08-11T12:22:32;29.90;30.90
73137;DHT22;61329;45.638;11.714;2022-08-11T12:25:17;29.90;30.80
73137;DHT22;61329;45.638;11.714;2022-08-11T12:28:03;30.00;30.50
73137;DHT22;61329;45.638;11.714;2022-08-11T12:30:29;30.00;30.30
73137;DHT22;61329;45.638;11.714;2022-08-11T12:32:56;30.00;30.30
73137;DHT22;61329;45.638;11.714;2022-08-11T12:35:23;29.90;30.40
73137;DHT22;61329;45.638;11.714;2022-08-11T12:37:52;29.80;30.00
73137;DHT22;61329;45.638;11.714;2022-08-11T12:40:28;29.90;30.00
73137;DHT22;61329;45.638;11.714;2022-08-11T12:43:26;29.80;30.10
73137;DHT22;61329;45.638;11.714;2022-08-11T12:46:35;29.80;30.20
73137;DHT22;61329;45.638;11.714;2022-08-11T12:49:16;29.70;30.10
73137;DHT22;61329;45.638;11.714;2022-08-11T12:52:20;29.80;30.00
73137;DHT22;61329;45.638;11.714;2022-08-11T12:55:12;29.90;30.20
73137;DHT22;61329;45.638;11.714;2022-08-11T12:58:22;29.80;29.60
73137;DHT22;61329;45.638;11.714;2022-08-11T13:01:17;29.80;29.20
73137;DHT22;61329;45.638;11.714;2022-08-11T13:04:29;29.80;29.40
73137;DHT22;61329;45.638;11.714;2022-08-11T13:07:29;29.70;29.50
73137;DHT22;61329;45.638;11.714;2022-08-11T13:10:05;29.80;28.80
73137;DHT22;61329;45.638;11.714;2022-08-11T13:12:32;29.70;29.20
73137;DHT22;61329;45.638;11.714;2022-08-11T13:15:23;29.60;29.40
73137;DHT22;61329;45.638;11.714;2022-08-11T13:17:52;29.70;29.60
73137;DHT22;61329;45.638;11.714;2022-08-11T13:20:21;29.70;29.50
73137;DHT22;61329;45.638;11.714;2022-08-11T13:22:50;29.60;29.10
73137;DHT22;61329;45.638;11.714;2022-08-11T13:25:20;29.70;29.30
73137;DHT22;61329;45.638;11.714;2022-08-11T13:27:49;29.70;28.80
73137;DHT22;61329;45.638;11.714;2022-08-11T13:30:17;29.70;28.30
73137;DHT22;61329;45.638;11.714;2022-08-11T13:33:03;29.70;29.00
73137;DHT22;61329;45.638;11.714;2022-08-11T13:35:31;29.60;28.90
73137;DHT22;61329;45.638;11.714;2022-08-11T13:38:00;29.60;28.50
73137;DHT22;61329;45.638;11.714;2022-08-11T13:40:28;29.60;28.70
73137;DHT22;61329;45.638;11.714;2022-08-11T13:42:55;29.60;28.60
73137;DHT22;61329;45.638;11.714;2022-08-11T13:45:24;29.60;28.90
73137;DHT22;61329;45.638;11.714;2022-08-11T13:47:54;29.50;28.70
73137;DHT22;61329;45.638;11.714;2022-08-11T13:50:21;29.60;29.00
73137;DHT22;61329;45.638;11.714;2022-08-11T13:53:09;29.50;28.90
73137;DHT22;61329;45.638;11.714;2022-08-11T13:55:41;29.50;28.80
73137;DHT22;61329;45.638;11.714;2022-08-11T13:58:13;29.60;28.50
73137;DHT22;61329;45.638;11.714;2022-08-11T14:00:44;29.50;28.90
73137;DHT22;61329;45.638;11.714;2022-08-11T14:03:12;29.60;28.80
73137;DHT22;61329;45.638;11.714;2022-08-11T14:05:47;29.50;28.50
73137;DHT22;61329;45.638;11.714;2022-08-11T14:08:20;29.50;28.10
73137;DHT22;61329;45.638;11.714;2022-08-11T14:10:48;29.50;28.30
73137;DHT22;61329;45.638;11.714;2022-08-11T14:13:41;29.50;28.50
73137;DHT22;61329;45.638;11.714;2022-08-11T14:16:17;29.40;28.20
73137;DHT22;61329;45.638;11.714;2022-08-11T14:18:46;29.50;28.60
73137;DHT22;61329;45.638;11.714;2022-08-11T14:21:15;29.50;28.40
73137;DHT22;61329;45.638;11.714;2022-08-11T14:24:02;29.40;28.50
73137;DHT22;61329;45.638;11.714;2022-08-11T14:26:30;29.50;28.20
73137;DHT22;61329;45.638;11.714;2022-08-11T14:31:34;29.40;28.30
73137;DHT22;61329;45.638;11.714;2022-08-11T14:34:03;29.40;28.10
73137;DHT22;61329;45.638;11.714;2022-08-11T14:36:37;29.40;28.30
73137;DHT22;61329;45.638;11.714;2022-08-11T14:39:12;29.40;28.50
73137;DHT22;61329;45.638;11.714;2022-08-11T14:41:44;29.40;28.10
73137;DHT22;61329;45.638;11.714;2022-08-11T14:44:31;29.30;28.30
73137;DHT22;61329;45.638;11.714;2022-08-11T14:47:17;29.40;28.30
73137;DHT22;61329;45.638;11.714;2022-08-11T14:49:44;29.40;28.40
73137;DHT22;61329;45.638;11.714;2022-08-11T14:52:13;29.40;28.50
73137;DHT22;61329;45.638;11.714;2022-08-11T14:54:47;29.30;28.60
73137;DHT22;61329;45.638;11.714;2022-08-11T14:57:39;29.40;28.60
73137;DHT22;61329;45.638;11.714;2022-08-11T15:00:09;29.20;27.90
73137;DHT22;61329;45.638;11.714;2022-08-11T15:02:38;29.30;27.80
73137;DHT22;61329;45.638;11.714;2022-08-11T15:05:26;29.30;28.20
73137;DHT22;61329;45.638;11.714;2022-08-11T15:07:55;29.30;27.70
73137;DHT22;61329;45.638;11.714;2022-08-11T15:10:23;29.30;27.70
73137;DHT22;61329;45.638;11.714;2022-08-11T15:12:57;29.30;27.90
73137;DHT22;61329;45.638;11.714;2022-08-11T15:15:35;29.20;28.00
73137;DHT22;61329;45.638;11.714;2022-08-11T15:18:23;29.20;28.20
73137;DHT22;61329;45.638;11.714;2022-08-11T15:20:52;29.20;27.70
73137;DHT22;61329;45.638;11.714;2022-08-11T15:23:39;29.30;27.70
73137;DHT22;61329;45.638;11.714;2022-08-11T15:26:37;29.30;28.50
73137;DHT22;61329;45.638;11.714;2022-08-11T15:29:27;29.20;28.10
73137;DHT22;61329;45.638;11.714;2022-08-11T15:32:13;29.30;28.30
73137;DHT22;61329;45.638;11.714;2022-08-11T15:34:54;29.30;27.80
73137;DHT22;61329;45.638;11.714;2022-08-11T15:37:42;29.30;27.70
73137;DHT22;61329;45.638;11.714;2022-08-11T15:40:15;29.20;28.10
73137;DHT22;61329;45.638;11.714;2022-08-11T15:44:02;29.20;29.10
73137;DHT22;61329;45.638;11.714;2022-08-11T15:46:50;29.20;28.40
73137;DHT22;61329;45.638;11.714;2022-08-11T15:49:29;29.20;28.40
73137;DHT22;61329;45.638;11.714;2022-08-11T15:52:05;29.20;28.60
73137;DHT22;61329;45.638;11.714;2022-08-11T15:54:33;29.20;28.20
73137;DHT22;61329;45.638;11.714;2022-08-11T15:57:01;29.20;28.00
73137;DHT22;61329;45.638;11.714;2022-08-11T15:59:34;29.10;27.90
73137;DHT22;61329;45.638;11.714;2022-08-11T16:02:21;29.20;28.30
73137;DHT22;61329;45.638;11.714;2022-08-11T16:05:02;29.10;28.30
73137;DHT22;61329;45.638;11.714;2022-08-11T16:07:32;29.10;29.00
73137;DHT22;61329;45.638;11.714;2022-08-11T16:10:08;29.20;28.60
73137;DHT22;61329;45.638;11.714;2022-08-11T16:13:19;29.10;28.30
73137;DHT22;61329;45.638;11.714;2022-08-11T16:15:52;29.10;28.30
73137;DHT22;61329;45.638;11.714;2022-08-11T16:18:56;29.10;27.90
73137;DHT22;61329;45.638;11.714;2022-08-11T16:21:33;29.10;28.40
73137;DHT22;61329;45.638;11.714;2022-08-11T16:24:02;29.10;28.00
73137;DHT22;61329;45.638;11.714;2022-08-11T16:26:30;29.10;28.60
73137;DHT22;61329;45.638;11.714;2022-08-11T16:28:59;29.00;29.40
73137;DHT22;61329;45.638;11.714;2022-08-11T16:31:27;29.10;28.20
73137;DHT22;61329;45.638;11.714;2022-08-11T16:34:00;29.10;28.30
73137;DHT22;61329;45.638;11.714;2022-08-11T16:36:53;29.00;28.90
73137;DHT22;61329;45.638;11.714;2022-08-11T16:39:39;29.10;29.00
73137;DHT22;61329;45.638;11.714;2022-08-11T16:42:06;29.00;28.70
73137;DHT22;61329;45.638;11.714;2022-08-11T16:44:54;29.10;28.10
73137;DHT22;61329;45.638;11.714;2022-08-11T16:47:41;29.10;27.90
73137;DHT22;61329;45.638;11.714;2022-08-11T16:50:08;29.10;28.40
73137;DHT22;61329;45.638;11.714;2022-08-11T16:52:35;29.10;28.40
73137;DHT22;61329;45.638;11.714;2022-08-11T16:55:01;29.00;29.70
73137;DHT22;61329;45.638;11.714;2022-08-11T16:57:30;29.10;28.70
73137;DHT22;61329;45.638;11.714;2022-08-11T17:00:16;29.10;29.20
73137;DHT22;61329;45.638;11.714;2022-08-11T17:02:50;29.10;29.10
73137;DHT22;61329;45.638;11.714;2022-08-11T17:05:41;29.10;29.30
73137;DHT22;61329;45.638;11.714;2022-08-11T17:08:49;29.10;29.10
73137;DHT22;61329;45.638;11.714;2022-08-11T17:11:45;29.10;29.50
73137;DHT22;61329;45.638;11.714;2022-08-11T17:14:40;29.20;29.70
73137;DHT22;61329;45.638;11.714;2022-08-11T17:17:35;29.20;29.50
73137;DHT22;61329;45.638;11.714;2022-08-11T17:20:04;29.20;29.70
73137;DHT22;61329;45.638;11.714;2022-08-11T17:22:36;29.10;30.90
73137;DHT22;61329;45.638;11.714;2022-08-11T17:25:23;29.20;29.90
73137;DHT22;61329;45.638;11.714;2022-08-11T17:27:54;29.20;29.90
73137;DHT22;61329;45.638;11.714;2022-08-11T17:30:23;29.20;30.10
73137;DHT22;61329;45.638;11.714;2022-08-11T17:33:11;29.20;30.10
73137;DHT22;61329;45.638;11.714;2022-08-11T17:35:56;29.20;30.00
73137;DHT22;61329;45.638;11.714;2022-08-11T17:38:23;29.20;30.10
73137;DHT22;61329;45.638;11.714;2022-08-11T17:40:59;29.30;30.60
73137;DHT22;61329;45.638;11.714;2022-08-11T17:43:44;29.30;30.40
73137;DHT22;61329;45.638;11.714;2022-08-11T17:46:30;29.20;31.30
73137;DHT22;61329;45.638;11.714;2022-08-11T17:49:15;29.20;31.60
73137;DHT22;61329;45.638;11.714;2022-08-11T17:51:47;29.20;31.40
73137;DHT22;61329;45.638;11.714;2022-08-11T17:54:34;29.20;31.40
73137;DHT22;61329;45.638;11.714;2022-08-11T17:57:26;29.20;31.70
73137;DHT22;61329;45.638;11.714;2022-08-11T18:00:26;29.20;31.70
73137;DHT22;61329;45.638;11.714;2022-08-11T18:03:09;29.30;31.50
73137;DHT22;61329;45.638;11.714;2022-08-11T18:06:07;29.20;31.80
73137;DHT22;61329;45.638;11.714;2022-08-11T18:09:06;29.20;31.90
73137;DHT22;61329;45.638;11.714;2022-08-11T18:12:05;29.20;31.50
73137;DHT22;61329;45.638;11.714;2022-08-11T18:15:05;29.20;31.60
73137;DHT22;61329;45.638;11.714;2022-08-11T18:18:01;29.20;32.20
73137;DHT22;61329;45.638;11.714;2022-08-11T18:21:10;29.20;31.60
73137;DHT22;61329;45.638;11.714;2022-08-11T18:24:12;29.30;31.70
73137;DHT22;61329;45.638;11.714;2022-08-11T18:27:11;29.20;31.80
73137;DHT22;61329;45.638;11.714;2022-08-11T18:30:15;29.30;32.10
73137;DHT22;61329;45.638;11.714;2022-08-11T18:33:14;29.30;31.80
73137;DHT22;61329;45.638;11.714;2022-08-11T18:36:16;29.30;32.20
73137;DHT22;61329;45.638;11.714;2022-08-11T18:39:12;29.20;32.00
73137;DHT22;61329;45.638;11.714;2022-08-11T18:42:11;29.30;31.70
73137;DHT22;61329;45.638;11.714;2022-08-11T18:45:02;29.40;31.90
73137;DHT22;61329;45.638;11.714;2022-08-11T18:47:49;29.50;31.50
73137;DHT22;61329;45.638;11.714;2022-08-11T18:50:36;29.50;31.40
73137;DHT22;61329;45.638;11.714;2022-08-11T18:53:22;29.60;31.70
73137;DHT22;61329;45.638;11.714;2022-08-11T18:56:10;29.70;31.50
73137;DHT22;61329;45.638;11.714;2022-08-11T18:58:55;29.70;31.30
73137;DHT22;61329;45.638;11.714;2022-08-11T19:01:41;29.90;31.60
73137;DHT22;61329;45.638;11.714;2022-08-11T19:04:30;29.90;31.00
73137;DHT22;61329;45.638;11.714;2022-08-11T19:07:24;30.10;31.40
73137;DHT22;61329;45.638;11.714;2022-08-11T19:10:20;30.20;31.10
73137;DHT22;61329;45.638;11.714;2022-08-11T19:13:14;30.20;30.80
73137;DHT22;61329;45.638;11.714;2022-08-11T19:16:08;30.20;31.00
73137;DHT22;61329;45.638;11.714;2022-08-11T19:18:57;30.40;31.10
73137;DHT22;61329;45.638;11.714;2022-08-11T19:21:48;30.40;31.00
73137;DHT22;61329;45.638;11.714;2022-08-11T19:24:38;30.50;31.10
73137;DHT22;61329;45.638;11.714;2022-08-11T19:27:26;30.60;31.30
73137;DHT22;61329;45.638;11.714;2022-08-11T19:30:11;30.50;31.50
73137;DHT22;61329;45.638;11.714;2022-08-11T19:32:57;30.50;31.10
73137;DHT22;61329;45.638;11.714;2022-08-11T19:35:43;30.60;31.60
73137;DHT22;61329;45.638;11.714;2022-08-11T19:38:28;30.50;32.10
73137;DHT22;61329;45.638;11.714;2022-08-11T19:41:14;30.60;32.40
73137;DHT22;61329;45.638;11.714;2022-08-11T19:43:59;30.70;33.40
73137;DHT22;61329;45.638;11.714;2022-08-11T19:46:44;30.70;33.70
73137;DHT22;61329;45.638;11.714;2022-08-11T19:49:29;30.80;33.90
73137;DHT22;61329;45.638;11.714;2022-08-11T19:52:14;30.80;33.10
73137;DHT22;61329;45.638;11.714;2022-08-11T19:54:59;30.90;32.70